createdAt,value
2022-08-03T00:03:36.469Z,2.2
2022-08-03T00:09:57.380Z,2.2
2022-08-03T00:16:20.482Z,1.3
2022-08-03T00:22:40.457Z,1.3
2022-08-03T00:29:03.519Z,0.9
2022-08-03T00:35:32.475Z,0.9
2022-08-03T00:41:46.467Z,1.3
2022-08-03T00:48:06.506Z,1.3
2022-08-03T00:54:29.534Z,1.9
2022-08-03T01:00:49.572Z,1.9
2022-08-03T01:07:12.473Z,0.7
2022-08-03T01:14:00.018Z,0.7
2022-08-03T01:19:55.547Z,0.8
2022-08-03T01:26:15.487Z,0.8
2022-08-03T01:33:02.348Z,1
2022-08-03T01:38:58.483Z,1
2022-08-03T01:45:21.487Z,1.5
2022-08-03T01:51:56.746Z,1.5
2022-08-03T01:58:06.353Z,2
2022-08-03T02:04:24.498Z,2
2022-08-03T02:10:47.509Z,2.3
2022-08-03T02:17:07.460Z,2.3
2022-08-03T02:23:30.524Z,4.8
2022-08-03T02:29:50.454Z,4.8
2022-08-03T02:36:13.487Z,1.3
2022-08-03T02:42:33.549Z,1.3
2022-08-03T02:48:56.560Z,1.6
2022-08-03T02:55:16.544Z,1.6
2022-08-03T03:01:39.457Z,1.3
2022-08-03T03:07:59.485Z,1.3
2022-08-03T03:14:33.582Z,1.3
2022-08-03T03:20:42.458Z,1.3
2022-08-03T03:27:05.486Z,1.7
2022-08-03T03:33:27.194Z,1.7
2022-08-03T03:39:48.509Z,1.6
2022-08-03T03:46:08.516Z,1.6
2022-08-03T03:52:31.473Z,2.4
2022-08-03T04:15:54.498Z,2.8
2022-08-03T04:22:14.665Z,2.8
2022-08-03T04:28:37.499Z,1.2
2022-08-03T04:34:57.515Z,1.2
2022-08-03T04:41:20.502Z,2
2022-08-03T04:47:40.523Z,2
2022-08-03T04:54:03.466Z,3
2022-08-03T05:00:23.514Z,3
2022-08-03T05:06:48.295Z,2.4
2022-08-03T05:13:06.464Z,2.4
2022-08-03T05:19:29.516Z,1.5
2022-08-03T05:25:49.657Z,1.5
2022-08-03T05:32:12.520Z,1.9
2022-08-03T05:38:34.496Z,1.9
2022-08-03T05:44:55.509Z,1.4
2022-08-03T05:51:15.519Z,1.4
2022-08-03T05:57:38.463Z,1
2022-08-03T06:03:58.509Z,1
2022-08-03T06:10:35.171Z,1.3
2022-08-03T06:16:41.474Z,1.3
2022-08-03T06:23:04.505Z,1.5
2022-08-03T06:29:24.459Z,1.5
2022-08-03T06:35:47.507Z,0.7
2022-08-03T06:42:07.476Z,0.7
2022-08-03T06:48:30.457Z,2.8
2022-08-03T06:54:50.517Z,2.8
2022-08-03T07:01:13.562Z,2.9
2022-08-03T07:07:33.631Z,2.9
2022-08-03T07:13:56.479Z,2.3
2022-08-03T07:20:16.999Z,2.3
2022-08-03T07:26:39.854Z,2.8
2022-08-03T07:32:59.466Z,2.8
2022-08-03T07:39:22.506Z,1.5
2022-08-03T07:45:42.461Z,1.5
2022-08-03T07:52:05.547Z,2.7
2022-08-03T07:58:25.480Z,2.7
2022-08-03T08:04:48.467Z,1.4
2022-08-03T08:11:08.515Z,1.4
2022-08-03T08:17:31.476Z,2.1
2022-08-03T08:23:54.990Z,2.1
2022-08-03T08:30:17.303Z,1.6
2022-08-03T08:36:34.475Z,1.6
2022-08-03T08:42:58.975Z,1.5
2022-08-03T08:49:19.563Z,1.5
2022-08-03T08:55:56.640Z,1.5
2022-08-03T09:02:02.468Z,1.5
2022-08-03T09:08:25.514Z,1.4
2022-08-03T09:15:01.008Z,1.4
2022-08-03T09:21:24.439Z,1
2022-08-03T09:27:28.497Z,1
2022-08-03T09:33:51.477Z,1.3
2022-08-03T09:40:11.521Z,1.3
2022-08-03T09:56:57.154Z,1
2022-08-03T10:03:17.626Z,1
2022-08-03T10:09:40.468Z,2.6
2022-08-03T10:16:21.072Z,2.6
2022-08-03T10:22:23.473Z,2.6
2022-08-03T10:28:45.388Z,2.6
2022-08-03T10:35:19.035Z,1.6
2022-08-03T10:41:26.470Z,1.6
2022-08-03T10:47:49.520Z,0.6
2022-08-03T10:54:10.383Z,0.6
2022-08-03T11:00:32.574Z,1.4
2022-08-03T11:06:52.465Z,1.4
2022-08-03T11:13:16.787Z,0.6
2022-08-03T11:19:35.476Z,0.6
2022-08-03T11:25:58.468Z,1.4
2022-08-03T11:32:19.616Z,1.4
2022-08-03T11:38:41.486Z,1
2022-08-03T11:45:01.546Z,1
2022-08-03T11:51:25.575Z,0.6
2022-08-03T11:58:57.302Z,0.6
2022-08-03T12:04:08.528Z,0.8
2022-08-03T12:10:28.471Z,0.8
2022-08-03T12:16:51.803Z,1.5
2022-08-03T12:23:11.780Z,1.5
2022-08-03T12:29:34.537Z,1.2
2022-08-03T12:35:54.483Z,1.2
2022-08-03T12:42:17.663Z,0.8
2022-08-03T12:48:37.981Z,0.8
2022-08-03T12:55:00.490Z,0.9
2022-08-03T13:01:22.759Z,0.9
2022-08-03T13:07:46.007Z,1.3
2022-08-03T13:14:05.496Z,1.3
2022-08-03T13:20:28.511Z,0.7
2022-08-03T13:26:48.470Z,0.7
2022-08-03T13:33:11.521Z,0.8
2022-08-03T13:39:32.374Z,0.8
2022-08-03T13:45:56.846Z,1.1
2022-08-03T13:52:14.474Z,1.1
2022-08-03T13:58:37.526Z,0.8
2022-08-03T14:04:57.547Z,0.8
2022-08-03T14:11:20.475Z,0.9
2022-08-03T14:17:42.464Z,0.9
2022-08-03T14:24:03.567Z,1.2
2022-08-03T14:30:23.891Z,1.2
2022-08-03T14:36:46.487Z,1.1
2022-08-03T14:43:06.514Z,1.1
2022-08-03T14:50:35.539Z,1.4
2022-08-03T14:55:51.463Z,1.4
2022-08-03T15:02:18.549Z,0.7
2022-08-03T15:08:32.477Z,0.7
2022-08-03T15:14:55.610Z,0.4
2022-08-03T15:21:16.378Z,0.4
2022-08-03T15:28:03.170Z,0.8
2022-08-03T15:50:09.850Z,0.4
2022-08-03T15:56:28.470Z,0.4
2022-08-03T16:02:55.669Z,0.8
2022-08-03T16:09:23.191Z,0.8
2022-08-03T16:15:34.475Z,0.9
2022-08-03T16:21:54.529Z,0.9
2022-08-03T16:28:17.666Z,1.5
2022-08-03T16:34:37.485Z,1.5
2022-08-03T16:41:00.503Z,1.2
2022-08-03T16:47:22.042Z,1.2
2022-08-03T16:53:51.807Z,1
2022-08-03T17:00:03.492Z,1
2022-08-03T17:06:26.542Z,1.6
2022-08-03T17:12:46.479Z,1.6
2022-08-03T17:19:09.546Z,0.9
2022-08-03T17:25:39.599Z,0.9
2022-08-03T17:31:52.499Z,1
2022-08-03T17:38:15.093Z,1
2022-08-03T17:44:45.996Z,1.1
2022-08-03T17:50:55.526Z,1.1
2022-08-03T17:57:21.768Z,1.9
2022-08-03T18:03:44.908Z,1.9
2022-08-03T18:10:02.822Z,1.6
2022-08-03T18:16:21.470Z,1.6
2022-08-03T18:22:44.562Z,2.3
2022-08-03T18:29:04.495Z,2.3
2022-08-03T18:35:27.527Z,1.5
2022-08-03T18:41:47.462Z,1.5
2022-08-03T18:48:10.509Z,0.5
2022-08-03T18:54:44.726Z,0.5
2022-08-03T19:00:54.528Z,0.6
2022-08-03T19:07:13.461Z,0.6
2022-08-03T19:13:36.837Z,1.5
2022-08-03T19:19:56.472Z,1.5
2022-08-03T19:26:30.113Z,1.4
2022-08-03T19:32:39.517Z,1.4
2022-08-03T19:39:02.492Z,1.4
2022-08-03T19:45:22.535Z,1.4
2022-08-03T19:51:58.230Z,1.8
2022-08-03T19:58:05.562Z,1.8
2022-08-03T20:04:28.460Z,1.5
2022-08-03T20:10:48.508Z,1.5
2022-08-03T20:17:11.453Z,1
2022-08-03T20:23:37.269Z,1
2022-08-03T20:30:05.542Z,0.1
2022-08-03T20:36:15.852Z,0.1
2022-08-03T20:42:38.689Z,1.4
2022-08-03T20:48:58.763Z,1.4
2022-08-03T20:55:47.426Z,0.9
2022-08-03T21:01:41.477Z,0.9
2022-08-03T21:08:06.804Z,0.8
2022-08-03T21:31:29.539Z,0.7
2022-08-03T21:37:49.637Z,0.7
2022-08-03T21:44:12.685Z,1.5
2022-08-03T21:50:32.651Z,1.5
2022-08-03T21:56:55.660Z,2
2022-08-03T22:22:26.468Z,3.4
2022-08-03T22:28:46.535Z,3.4
2022-08-03T22:35:09.493Z,3.4
2022-08-03T22:41:29.493Z,3.4
2022-08-03T22:47:52.492Z,2.3
2022-08-03T22:54:12.531Z,2.3
2022-08-03T23:00:35.514Z,2.5
2022-08-03T23:06:55.489Z,2.5
2022-08-03T23:13:18.502Z,1.9
2022-08-03T23:19:41.592Z,1.9
2022-08-03T23:26:01.462Z,2
2022-08-03T23:32:21.523Z,2
2022-08-03T23:38:44.540Z,2.9
2022-08-03T23:45:05.574Z,2.9
2022-08-03T23:51:27.481Z,1.3
2022-08-03T23:57:47.515Z,1.3
